Time;durP1;ratioP1;P1;durP2;ratioP2;P2;SDS_P1;SDS_P2;PMS_P1;PMS_P2;Temp;Humidity;BMP_temperature;BMP_pressure;BME280_temperature;BME280_humidity;BME280_pressure;Samples;Min_cycle;Max_cycle;Signal;HPM_P1;HPM_P2
2021/12/15 00:01:48;;;;;;;640.70;81.10;;;5.40;99.90;;;;;;5024673;28;20033;-72
2021/12/15 00:04:14;;;;;;;535.20;69.68;;;5.30;99.90;;;;;;5027016;28;20091;-71
2021/12/15 00:06:40;;;;;;;247.60;50.90;;;5.40;99.90;;;;;;5025589;28;20028;-71
2021/12/15 00:09:10;;;;;;;617.00;86.32;;;5.40;99.90;;;;;;5010005;28;20101;-71
2021/12/15 00:11:37;;;;;;;294.67;53.05;;;5.30;99.90;;;;;;5022239;28;20045;-72
2021/12/15 00:14:08;;;;;;;322.95;55.47;;;5.30;99.90;;;;;;5026281;28;20589;-72
2021/12/15 00:16:34;;;;;;;313.40;50.00;;;5.30;99.90;;;;;;5018798;28;20021;-70
2021/12/15 00:19:01;;;;;;;296.48;54.33;;;5.30;99.90;;;;;;5011678;28;20108;-71
2021/12/15 00:21:27;;;;;;;374.50;56.50;;;5.30;99.90;;;;;;5016452;28;20025;-72
2021/12/15 00:23:52;;;;;;;161.93;45.08;;;5.30;99.90;;;;;;5017042;28;20025;-72
2021/12/15 00:26:18;;;;;;;166.98;44.20;;;5.30;99.90;;;;;;5014502;28;20022;-72
2021/12/15 00:28:45;;;;;;;258.13;50.08;;;5.30;99.90;;;;;;5014390;28;20094;-72
2021/12/15 00:31:12;;;;;;;299.58;57.33;;;5.30;99.90;;;;;;5014191;28;20022;-72
2021/12/15 00:33:39;;;;;;;164.88;41.95;;;5.30;99.90;;;;;;5023162;28;20048;-72
2021/12/15 00:36:06;;;;;;;364.23;55.72;;;5.30;99.90;;;;;;5026629;28;20032;-72
2021/12/15 00:38:32;;;;;;;212.05;45.88;;;5.30;99.90;;;;;;5028027;28;20112;-72
2021/12/15 00:40:57;;;;;;;321.92;51.17;;;5.30;99.90;;;;;;5022477;28;20523;-72
2021/12/15 00:43:24;;;;;;;535.22;70.35;;;5.20;99.90;;;;;;5025431;28;20088;-72
2021/12/15 00:45:49;;;;;;;348.88;56.83;;;5.20;99.90;;;;;;5024114;28;20029;-72
2021/12/15 00:48:16;;;;;;;162.18;40.55;;;5.10;99.90;;;;;;5025700;28;20559;-72
2021/12/15 00:50:43;;;;;;;200.05;44.90;;;5.10;99.90;;;;;;5024394;28;20022;-72
2021/12/15 00:53:09;;;;;;;288.70;49.35;;;5.20;99.90;;;;;;5026393;28;20025;-71
2021/12/15 00:55:36;;;;;;;214.68;45.50;;;5.20;99.90;;;;;;5023202;28;20024;-72
2021/12/15 00:58:04;;;;;;;269.40;46.67;;;5.20;99.90;;;;;;5025968;28;20097;-71
2021/12/15 01:00:37;;;;;;;249.32;46.50;;;5.20;99.90;;;;;;5025975;28;20018;-70
2021/12/15 01:03:04;;;;;;;235.57;45.90;;;5.20;99.90;;;;;;5012302;28;20514;-70
2021/12/15 01:05:35;;;;;;;228.15;40.63;;;5.20;99.90;;;;;;5024668;28;20030;-70
2021/12/15 01:08:04;;;;;;;254.02;50.65;;;5.20;99.90;;;;;;5010673;28;20022;-71
2021/12/15 01:10:43;;;;;;;260.85;46.75;;;5.20;99.90;;;;;;5013457;28;20037;-71
2021/12/15 01:21:12;;;;;;;259.92;45.03;;;5.30;99.90;;;;;;5015455;28;20079;-71
2021/12/15 01:23:39;;;;;;;285.50;44.08;;;5.20;99.90;;;;;;5021886;28;20100;-71
2021/12/15 01:26:10;;;;;;;266.58;43.97;;;5.20;99.90;;;;;;5027320;28;20029;-71
2021/12/15 01:28:36;;;;;;;319.77;49.33;;;5.10;99.90;;;;;;5021055;28;20030;-71
2021/12/15 01:31:05;;;;;;;431.65;54.80;;;5.20;99.90;;;;;;5014200;28;20071;-71
2021/12/15 01:33:31;;;;;;;195.25;40.30;;;5.20;99.90;;;;;;5021391;28;20017;-71
2021/12/15 01:35:59;;;;;;;514.60;63.78;;;5.20;99.90;;;;;;5021562;28;20108;-71
2021/12/15 01:38:28;;;;;;;202.50;39.15;;;5.20;99.90;;;;;;5026480;28;20076;-71
2021/12/15 01:40:55;;;;;;;278.13;45.47;;;5.20;99.90;;;;;;5027222;28;20083;-71
2021/12/15 01:43:49;;;;;;;318.60;45.92;;;5.20;99.90;;;;;;5025261;28;20039;-71
2021/12/15 01:49:09;;;;;;;404.20;49.92;;;5.20;99.90;;;;;;5017134;28;20047;-71
2021/12/15 01:51:34;;;;;;;343.35;44.15;;;5.20;99.90;;;;;;5024687;28;20022;-71
2021/12/15 01:54:01;;;;;;;271.67;41.47;;;5.20;99.90;;;;;;5024199;28;20492;-71
2021/12/15 01:56:27;;;;;;;375.67;44.83;;;5.30;99.90;;;;;;5014984;28;20037;-71
2021/12/15 01:58:53;;;;;;;246.40;40.20;;;5.30;99.90;;;;;;5012678;28;20026;-71
2021/12/15 02:01:19;;;;;;;239.18;37.33;;;5.20;99.90;;;;;;5012535;28;20030;-71
2021/12/15 02:03:45;;;;;;;236.60;39.40;;;5.20;99.90;;;;;;5013980;28;20029;-71
2021/12/15 02:06:11;;;;;;;270.63;41.10;;;5.20;99.90;;;;;;5022862;28;20022;-71
2021/12/15 02:08:38;;;;;;;422.85;45.42;;;5.20;99.90;;;;;;5017589;28;20399;-71
2021/12/15 02:11:04;;;;;;;302.00;42.13;;;5.20;99.90;;;;;;5012341;28;20084;-71
2021/12/15 02:13:30;;;;;;;348.70;47.15;;;5.20;99.90;;;;;;5020847;28;20022;-71
2021/12/15 02:15:59;;;;;;;293.77;39.50;;;5.20;99.90;;;;;;5021169;28;20036;-71
2021/12/15 02:18:30;;;;;;;463.77;49.00;;;5.30;99.90;;;;;;5020610;28;20021;-71
2021/12/15 02:20:58;;;;;;;267.92;44.55;;;5.30;99.90;;;;;;5023520;28;20384;-71
2021/12/15 02:23:37;;;;;;;506.08;56.15;;;5.30;99.90;;;;;;5010808;28;20047;-72
2021/12/15 02:26:09;;;;;;;319.63;40.40;;;5.30;99.90;;;;;;5019280;28;20085;-71
2021/12/15 02:28:39;;;;;;;458.77;55.72;;;5.20;99.90;;;;;;5025779;28;20436;-71
2021/12/15 02:38:49;;;;;;;590.47;61.22;;;5.10;99.90;;;;;;5012412;28;20037;-72
2021/12/15 02:41:20;;;;;;;376.08;47.83;;;5.20;99.90;;;;;;5012133;28;20030;-72
2021/12/15 02:43:58;;;;;;;174.13;37.72;;;5.10;99.90;;;;;;5011847;28;20083;-72
2021/12/15 02:46:25;;;;;;;423.42;47.47;;;5.20;99.90;;;;;;5011803;28;20022;-70
2021/12/15 02:48:51;;;;;;;231.75;38.25;;;5.20;99.90;;;;;;5012160;28;20022;-71
2021/12/15 02:51:18;;;;;;;301.45;43.55;;;5.20;99.90;;;;;;5031747;28;20036;-71
2021/12/15 02:53:44;;;;;;;258.27;41.10;;;5.30;99.90;;;;;;5013930;28;20427;-71
2021/12/15 02:56:09;;;;;;;302.27;48.65;;;5.20;99.90;;;;;;5011883;28;20030;-72
2021/12/15 02:58:37;;;;;;;334.65;43.10;;;5.30;99.90;;;;;;5012012;28;20029;-71
2021/12/15 03:01:17;;;;;;;322.25;42.10;;;5.20;99.90;;;;;;5010700;28;20077;-71
2021/12/15 03:04:11;;;;;;;262.67;44.35;;;5.30;99.90;;;;;;5010400;28;20018;-71
2021/12/15 03:06:48;;;;;;;339.95;44.78;;;5.30;99.90;;;;;;5011787;28;20061;-71
2021/12/15 03:15:29;;;;;;;288.05;45.50;;;5.30;99.90;;;;;;5023156;28;20037;-72
2021/12/15 03:17:21;;;;;;;652.30;65.28;;;5.20;99.90;;;;;;5017174;28;20068;-71
2021/12/15 03:19:46;;;;;;;345.48;50.08;;;5.20;99.90;;;;;;5011745;28;20033;-72
2021/12/15 03:22:12;;;;;;;620.00;64.78;;;5.20;99.90;;;;;;5011724;28;20026;-72
2021/12/15 03:24:38;;;;;;;193.10;38.63;;;5.20;99.90;;;;;;5011514;28;20030;-71
2021/12/15 03:27:09;;;;;;;580.92;63.15;;;5.20;99.90;;;;;;5011744;28;20472;-70
2021/12/15 03:35:33;;;;;;;362.25;49.95;;;5.20;99.90;;;;;;5004005;28;20049;-72
2021/12/15 03:37:59;;;;;;;176.27;34.08;;;5.30;99.90;;;;;;5015908;28;20049;-71
2021/12/15 03:40:43;;;;;;;716.97;76.00;;;5.20;99.90;;;;;;5011628;28;20488;-72
2021/12/15 03:43:11;;;;;;;785.58;85.82;;;5.20;99.90;;;;;;5011625;28;20574;-72
2021/12/15 03:45:42;;;;;;;829.55;80.60;;;5.10;99.90;;;;;;5011253;28;20117;-72
2021/12/15 03:48:13;;;;;;;715.85;81.05;;;5.20;99.90;;;;;;5011565;28;20492;-73
2021/12/15 03:50:39;;;;;;;758.40;92.57;;;5.10;99.90;;;;;;5011303;28;20049;-73
2021/12/15 03:53:06;;;;;;;766.60;98.65;;;5.10;99.90;;;;;;5011463;28;20073;-72
2021/12/15 03:55:33;;;;;;;838.67;102.72;;;5.20;99.90;;;;;;5011223;28;20044;-70
2021/12/15 03:58:01;;;;;;;865.83;106.05;;;5.20;99.90;;;;;;5019757;28;20033;-71
2021/12/15 04:00:28;;;;;;;764.15;105.15;;;5.20;99.90;;;;;;5029611;28;20087;-70
2021/12/15 04:02:54;;;;;;;642.08;78.28;;;5.10;99.90;;;;;;5011499;28;20045;-72
2021/12/15 04:05:21;;;;;;;857.40;82.30;;;5.00;99.90;;;;;;5011070;28;20026;-72
2021/12/15 04:07:50;;;;;;;993.17;72.85;;;4.90;99.90;;;;;;5020326;28;20077;-71
2021/12/15 04:10:21;;;;;;;806.42;74.15;;;4.80;99.90;;;;;;5013074;28;20030;-72
2021/12/15 04:12:47;;;;;;;725.53;71.53;;;4.80;99.90;;;;;;5011133;28;20108;-72
2021/12/15 04:15:28;;;;;;;864.63;82.97;;;4.80;99.90;;;;;;5011054;28;20053;-72
2021/12/15 04:18:00;;;;;;;1015.25;74.30;;;4.70;99.90;;;;;;5011230;28;20022;-72
2021/12/15 04:20:29;;;;;;;776.10;67.30;;;4.70;99.90;;;;;;5013511;28;20036;-72
2021/12/15 04:22:55;;;;;;;678.47;63.25;;;4.80;99.90;;;;;;5019860;28;20034;-72
2021/12/15 04:25:29;;;;;;;590.83;73.10;;;4.90;99.90;;;;;;5013221;28;20396;-72
2021/12/15 04:28:12;;;;;;;780.42;66.78;;;4.90;99.90;;;;;;5014733;28;20022;-73
2021/12/15 04:30:46;;;;;;;506.40;64.78;;;5.00;99.90;;;;;;5014237;28;20025;-72
2021/12/15 04:33:27;;;;;;;652.33;65.07;;;5.00;99.90;;;;;;5014467;28;20018;-72
2021/12/15 04:35:55;;;;;;;473.10;54.67;;;5.10;99.90;;;;;;5027376;28;20075;-72
2021/12/15 04:38:23;;;;;;;624.70;62.08;;;5.10;99.90;;;;;;5001575;28;20025;-72
2021/12/15 04:40:49;;;;;;;412.33;50.45;;;5.10;99.90;;;;;;5014222;28;20032;-71
2021/12/15 04:43:16;;;;;;;475.05;52.47;;;5.10;99.90;;;;;;5021532;28;20088;-72
2021/12/15 04:45:41;;;;;;;705.63;60.17;;;5.10;99.90;;;;;;5020001;28;20030;-72
2021/12/15 04:48:08;;;;;;;569.63;53.50;;;5.10;99.90;;;;;;5014384;28;20022;-71
2021/12/15 04:50:34;;;;;;;585.40;59.70;;;5.20;99.90;;;;;;5014115;28;20026;-72
2021/12/15 04:53:02;;;;;;;413.33;55.50;;;5.10;99.90;;;;;;5014263;28;20056;-72
2021/12/15 04:55:29;;;;;;;650.60;62.47;;;5.20;99.90;;;;;;5013850;28;20523;-72
2021/12/15 04:57:57;;;;;;;723.58;68.47;;;5.20;99.90;;;;;;5014174;28;20057;-71
2021/12/15 05:00:26;;;;;;;806.60;63.42;;;5.10;99.90;;;;;;5012668;28;20026;-72
2021/12/15 05:02:53;;;;;;;927.00;73.95;;;5.20;99.90;;;;;;5013050;28;20362;-72
2021/12/15 05:05:21;;;;;;;423.02;51.58;;;5.10;99.90;;;;;;5013774;28;20094;-71
2021/12/15 05:07:47;;;;;;;678.50;60.72;;;5.10;99.90;;;;;;5013466;28;20037;-71
2021/12/15 05:10:12;;;;;;;754.20;75.57;;;5.10;99.90;;;;;;5013764;28;20033;-71
2021/12/15 05:12:38;;;;;;;815.13;68.30;;;5.10;99.90;;;;;;5013681;28;20403;-71
2021/12/15 05:15:07;;;;;;;589.50;63.38;;;5.00;99.90;;;;;;5013520;28;20038;-71
2021/12/15 05:17:32;;;;;;;562.13;61.28;;;5.00;99.90;;;;;;5013486;28;20022;-71
2021/12/15 05:20:02;;;;;;;322.63;46.10;;;5.00;99.90;;;;;;5012383;28;20026;-72
2021/12/15 05:22:28;;;;;;;746.63;69.13;;;5.00;99.90;;;;;;5013244;28;20036;-72
2021/12/15 05:24:54;;;;;;;786.03;77.75;;;5.10;99.90;;;;;;5013292;28;20037;-72
2021/12/15 05:27:20;;;;;;;794.67;72.32;;;5.00;99.90;;;;;;5013657;28;20037;-72
2021/12/15 05:29:50;;;;;;;834.58;74.60;;;5.00;99.90;;;;;;5012272;28;20033;-72
2021/12/15 05:32:18;;;;;;;761.53;82.43;;;5.00;99.90;;;;;;5013385;28;20030;-71
2021/12/15 05:34:46;;;;;;;650.15;68.90;;;4.90;99.90;;;;;;5013217;28;20021;-71
2021/12/15 05:37:12;;;;;;;598.60;69.95;;;5.00;99.90;;;;;;5013294;28;20045;-71
2021/12/15 05:39:40;;;;;;;495.13;62.78;;;5.00;99.90;;;;;;5012104;28;20026;-71
2021/12/15 05:42:05;;;;;;;486.27;63.13;;;5.00;99.90;;;;;;5013225;28;20026;-71
2021/12/15 05:44:31;;;;;;;572.53;65.38;;;5.00;99.90;;;;;;5031591;28;20060;-72
2021/12/15 05:47:00;;;;;;;628.05;69.80;;;5.00;99.90;;;;;;5021317;28;20528;-73
2021/12/15 05:49:27;;;;;;;703.72;78.85;;;5.00;99.90;;;;;;5012824;28;20176;-71
2021/12/15 05:51:53;;;;;;;496.30;63.67;;;5.00;99.90;;;;;;5012932;28;20025;-71
2021/12/15 05:54:18;;;;;;;573.15;64.20;;;5.00;99.90;;;;;;5012815;28;20083;-72
2021/12/15 05:56:44;;;;;;;453.38;63.33;;;5.00;99.90;;;;;;5012744;28;20022;-72
2021/12/15 05:59:10;;;;;;;546.17;84.47;;;5.00;99.90;;;;;;5012813;28;20033;-70
2021/12/15 06:01:37;;;;;;;598.47;75.30;;;5.00;99.90;;;;;;5012731;28;20435;-71
2021/12/15 06:04:05;;;;;;;362.67;59.22;;;5.00;99.90;;;;;;5012358;28;20026;-72
2021/12/15 06:06:31;;;;;;;557.42;72.82;;;5.10;99.90;;;;;;5012741;28;20381;-71
2021/12/15 06:08:57;;;;;;;273.88;53.50;;;5.10;99.90;;;;;;5012716;28;20088;-72
2021/12/15 06:11:23;;;;;;;324.02;55.20;;;5.10;99.90;;;;;;5012325;28;20026;-71
2021/12/15 06:13:50;;;;;;;324.67;57.70;;;5.00;99.90;;;;;;5011014;28;20030;-71
2021/12/15 06:16:18;;;;;;;289.15;55.00;;;5.00;99.90;;;;;;5012597;28;20022;-71
2021/12/15 06:18:44;;;;;;;601.78;79.75;;;5.00;99.90;;;;;;5012368;28;20433;-71
2021/12/15 06:21:10;;;;;;;329.15;59.92;;;5.00;99.90;;;;;;5012051;28;20022;-73
2021/12/15 06:23:36;;;;;;;331.40;59.17;;;5.00;99.90;;;;;;5012256;28;20029;-72
2021/12/15 06:26:05;;;;;;;223.68;51.08;;;5.00;99.90;;;;;;5012168;28;20361;-71
2021/12/15 06:28:32;;;;;;;309.85;62.58;;;5.00;99.90;;;;;;5013118;28;20048;-71
2021/12/15 06:30:59;;;;;;;260.23;55.05;;;5.00;99.90;;;;;;5029171;28;20435;-72
2021/12/15 06:33:28;;;;;;;429.75;77.82;;;5.00;99.90;;;;;;5019154;28;20025;-71
2021/12/15 06:35:57;;;;;;;223.00;56.85;;;5.00;99.90;;;;;;5031244;28;20043;-71
2021/12/15 06:38:28;;;;;;;169.55;49.10;;;5.10;99.90;;;;;;5012310;28;20022;-70
2021/12/15 06:40:55;;;;;;;226.32;57.63;;;5.00;99.90;;;;;;5012247;28;20026;-71
2021/12/15 06:43:21;;;;;;;510.05;105.00;;;4.90;99.90;;;;;;5010362;28;20508;-72
2021/12/15 06:59:18;;;;;;;212.98;52.95;;;4.90;99.90;;;;;;5018694;28;20055;-71
2021/12/15 07:01:46;;;;;;;262.67;63.03;;;5.00;99.90;;;;;;5021524;28;20025;-72
2021/12/15 07:04:12;;;;;;;238.45;63.83;;;5.00;99.90;;;;;;5005262;28;20029;-71
2021/12/15 07:06:38;;;;;;;217.05;54.70;;;5.00;99.90;;;;;;5011797;28;20449;-71
2021/12/15 07:09:04;;;;;;;128.30;45.13;;;5.00;99.90;;;;;;5010193;28;20056;-71
2021/12/15 07:11:29;;;;;;;426.73;72.75;;;5.00;99.90;;;;;;5023684;28;20484;-71
2021/12/15 07:13:55;;;;;;;413.23;70.57;;;5.10;99.90;;;;;;5009911;28;20057;-72
2021/12/15 07:16:20;;;;;;;206.30;55.83;;;5.00;99.90;;;;;;5011725;28;20025;-71
2021/12/15 07:21:19;;;;;;;542.35;83.45;;;5.00;99.90;;;;;;5011919;28;20101;-72
2021/12/15 07:23:45;;;;;;;311.98;62.47;;;4.90;99.90;;;;;;5011813;28;20030;-73
2021/12/15 07:26:12;;;;;;;274.48;58.10;;;5.00;99.90;;;;;;5011518;28;20018;-70
2021/12/15 07:28:38;;;;;;;313.50;60.28;;;5.00;99.90;;;;;;5011765;28;20044;-71
2021/12/15 07:31:04;;;;;;;294.40;58.55;;;5.00;99.90;;;;;;5011508;28;20022;-71
2021/12/15 07:33:30;;;;;;;282.00;62.53;;;5.00;99.90;;;;;;5011638;28;20022;-71
2021/12/15 07:35:56;;;;;;;319.20;66.07;;;5.00;99.90;;;;;;5009910;28;20036;-71
2021/12/15 07:38:22;;;;;;;487.08;82.30;;;5.00;99.90;;;;;;5017839;28;20475;-71
2021/12/15 07:40:48;;;;;;;245.50;50.58;;;5.10;99.90;;;;;;5016564;28;20084;-71
2021/12/15 07:43:23;;;;;;;437.15;72.00;;;5.00;99.90;;;;;;5011557;28;20093;-71
2021/12/15 07:45:52;;;;;;;;;;;5.00;99.90;;;;;;5011805;28;20026;-72
2021/12/15 07:48:20;;;;;;;417.80;62.75;;;5.00;99.90;;;;;;5011570;28;19914;-71
2021/12/15 07:50:50;;;;;;;295.30;54.50;;;5.00;99.90;;;;;;5011462;28;20099;-71
2021/12/15 07:53:16;;;;;;;166.25;44.55;;;5.00;99.90;;;;;;5011429;28;20088;-71
2021/12/15 07:55:42;;;;;;;288.85;56.25;;;5.10;99.90;;;;;;5014712;28;20068;-71
2021/12/15 07:58:09;;;;;;;341.58;62.83;;;5.10;99.90;;;;;;5015383;28;20018;-71
2021/12/15 08:00:36;;;;;;;236.45;53.13;;;5.00;99.90;;;;;;5015138;28;20026;-71
2021/12/15 08:03:03;;;;;;;176.05;44.38;;;5.10;99.90;;;;;;5024062;28;20116;-71
2021/12/15 08:05:28;;;;;;;284.15;53.95;;;5.10;99.90;;;;;;5017616;28;20108;-71
2021/12/15 08:07:54;;;;;;;259.90;53.67;;;5.00;99.90;;;;;;5015029;28;20093;-70
2021/12/15 08:10:20;;;;;;;254.48;53.25;;;5.00;99.90;;;;;;5014995;28;20044;-71
2021/12/15 08:12:47;;;;;;;186.45;50.83;;;5.10;99.90;;;;;;5018642;28;20029;-71
2021/12/15 08:15:14;;;;;;;177.52;48.92;;;5.10;99.90;;;;;;5014655;28;20010;-71
2021/12/15 08:17:41;;;;;;;291.77;63.35;;;5.10;99.90;;;;;;5014397;28;20026;-70
2021/12/15 08:20:10;;;;;;;314.50;72.97;;;5.10;99.90;;;;;;5013518;28;20026;-71
2021/12/15 08:22:37;;;;;;;197.02;54.63;;;5.00;99.90;;;;;;5013538;28;20118;-71
2021/12/15 08:25:05;;;;;;;173.35;49.15;;;5.00;99.90;;;;;;5014551;28;20377;-71
2021/12/15 08:27:31;;;;;;;265.30;63.35;;;5.10;99.90;;;;;;5014700;28;20058;-70
2021/12/15 08:29:56;;;;;;;209.88;53.63;;;5.00;99.90;;;;;;5014603;28;20443;-71
2021/12/15 08:32:22;;;;;;;319.73;69.13;;;5.10;99.90;;;;;;5014583;28;20036;-70
2021/12/15 08:34:48;;;;;;;335.05;86.90;;;5.10;99.90;;;;;;5026478;28;20116;-70
2021/12/15 08:37:14;;;;;;;276.25;65.63;;;5.20;99.90;;;;;;5014605;28;20030;-71
2021/12/15 08:39:45;;;;;;;158.35;47.03;;;5.10;99.90;;;;;;5019525;28;20025;-70
2021/12/15 08:42:12;;;;;;;127.22;43.03;;;5.20;99.90;;;;;;5021898;28;20026;-70
2021/12/15 08:44:38;;;;;;;235.88;57.17;;;5.30;99.90;;;;;;5014077;28;20068;-71
2021/12/15 08:47:06;;;;;;;234.18;57.10;;;5.30;99.90;;;;;;5027099;28;20036;-70
2021/12/15 08:49:32;;;;;;;147.93;50.63;;;5.30;99.90;;;;;;5014709;28;20435;-71
2021/12/15 08:51:58;;;;;;;154.82;46.53;;;5.30;99.90;;;;;;5027210;28;20491;-70
2021/12/15 08:54:24;;;;;;;388.35;68.78;;;5.30;99.90;;;;;;5020586;28;20056;-71
2021/12/15 08:56:51;;;;;;;357.13;68.32;;;5.20;99.90;;;;;;5033975;28;20468;-71
2021/12/15 08:59:18;;;;;;;243.13;59.55;;;5.20;99.90;;;;;;5033831;28;20751;-71
2021/12/15 09:01:44;;;;;;;157.18;49.80;;;5.30;99.90;;;;;;5033844;28;20097;-71
2021/12/15 09:04:11;;;;;;;203.75;57.05;;;5.30;99.90;;;;;;5033616;28;20377;-70
2021/12/15 09:06:39;;;;;;;155.80;51.78;;;5.40;99.90;;;;;;5020603;28;20580;-70
2021/12/15 09:09:06;;;;;;;250.57;63.33;;;5.40;99.90;;;;;;5012754;28;20565;-70
2021/12/15 09:11:32;;;;;;;257.38;60.20;;;5.40;99.90;;;;;;5026964;28;20029;-71
2021/12/15 09:13:59;;;;;;;207.45;55.75;;;5.50;99.90;;;;;;5013713;28;20034;-71
2021/12/15 09:16:26;;;;;;;138.43;47.30;;;5.50;99.90;;;;;;5021239;28;20480;-72
2021/12/15 09:18:55;;;;;;;161.15;49.72;;;5.40;99.90;;;;;;5013816;28;20113;-71
2021/12/15 09:21:23;;;;;;;139.85;49.28;;;5.40;99.90;;;;;;5013604;28;20022;-70
2021/12/15 09:23:50;;;;;;;200.70;58.67;;;5.50;99.90;;;;;;5013704;28;20030;-71
2021/12/15 09:26:15;;;;;;;139.05;49.83;;;5.50;99.90;;;;;;5015191;28;20080;-70
2021/12/15 09:28:41;;;;;;;165.68;52.97;;;5.50;99.90;;;;;;5033389;28;20420;-71
2021/12/15 09:31:09;;;;;;;113.03;43.55;;;5.50;99.90;;;;;;5031876;28;20014;-71
2021/12/15 09:33:38;;;;;;;135.27;47.58;;;5.60;99.90;;;;;;5013502;28;20131;-71
2021/12/15 09:36:05;;;;;;;156.75;48.67;;;5.70;99.90;;;;;;5015236;28;20097;-71
2021/12/15 09:38:32;;;;;;;183.40;56.85;;;5.70;99.90;;;;;;5033280;28;20472;-71
2021/12/15 09:41:01;;;;;;;133.32;48.72;;;5.70;99.90;;;;;;5033041;28;20029;-71
2021/12/15 09:43:30;;;;;;;120.97;47.15;;;5.70;99.90;;;;;;5024094;28;20026;-71
2021/12/15 09:46:13;;;;;;;196.27;59.47;;;5.70;99.90;;;;;;5029167;28;20028;-71
2021/12/15 10:18:31;;;;;;;126.05;48.08;;;5.60;99.90;;;;;;5011370;28;20092;-72
2021/12/15 10:20:57;;;;;;;128.65;51.13;;;5.70;99.90;;;;;;5032384;28;20017;-72
2021/12/15 10:23:30;;;;;;;129.48;49.15;;;5.80;99.90;;;;;;5032245;28;20026;-72
2021/12/15 10:25:57;;;;;;;112.55;47.00;;;5.70;99.90;;;;;;5019959;28;20485;-72
2021/12/15 10:28:30;;;;;;;140.23;52.80;;;5.80;99.90;;;;;;5016442;28;20025;-71
2021/12/15 10:31:03;;;;;;;126.07;51.30;;;5.80;99.90;;;;;;5018117;28;20416;-71
2021/12/15 10:33:37;;;;;;;153.13;56.40;;;5.90;99.90;;;;;;5012414;28;20021;-71
2021/12/15 10:36:13;;;;;;;115.38;49.58;;;5.90;99.90;;;;;;5025583;28;20037;-71
2021/12/15 10:38:41;;;;;;;;;;;6.00;99.90;;;;;;5012824;28;20024;-71
2021/12/15 10:41:18;;;;;;;112.97;47.97;;;6.00;99.90;;;;;;5012802;28;19906;-71
2021/12/15 10:44:00;;;;;;;115.80;49.28;;;5.90;99.90;;;;;;5012203;28;20017;-71
2021/12/15 10:46:50;;;;;;;109.40;49.60;;;6.00;99.90;;;;;;5013073;28;20021;-72
2021/12/15 10:49:24;;;;;;;127.13;62.03;;;6.10;99.90;;;;;;5029856;28;20534;-71
2021/12/15 10:51:56;;;;;;;107.00;47.72;;;6.00;99.90;;;;;;5011885;28;20042;-71
2021/12/15 10:54:25;;;;;;;107.90;45.17;;;6.00;99.90;;;;;;5011888;28;20022;-71
2021/12/15 10:57:05;;;;;;;95.18;43.40;;;6.00;99.90;;;;;;5012201;28;20026;-72
2021/12/15 10:59:37;;;;;;;99.45;46.45;;;6.10;99.90;;;;;;5031838;28;20029;-71
2021/12/15 11:02:09;;;;;;;118.13;49.92;;;6.20;99.90;;;;;;5023390;28;20083;-71
2021/12/15 11:04:40;;;;;;;136.18;51.28;;;6.20;99.90;;;;;;5026876;28;20449;-72
2021/12/15 11:07:11;;;;;;;122.00;50.22;;;6.20;99.90;;;;;;5019812;28;20048;-71
2021/12/15 11:09:45;;;;;;;117.50;50.70;;;6.30;99.90;;;;;;5013991;28;20057;-71
2021/12/15 11:12:35;;;;;;;108.82;48.90;;;6.30;99.90;;;;;;5015209;28;20464;-71
2021/12/15 11:15:33;;;;;;;115.20;51.67;;;6.30;99.90;;;;;;5012554;28;20392;-71
2021/12/15 11:18:02;;;;;;;111.47;49.38;;;6.30;99.90;;;;;;5020176;28;20084;-71
2021/12/15 11:20:29;;;;;;;124.10;50.38;;;6.40;99.90;;;;;;5015683;28;20100;-71
2021/12/15 11:22:57;;;;;;;96.60;43.45;;;6.30;99.90;;;;;;5021517;28;20029;-71
2021/12/15 11:25:33;;;;;;;106.78;47.30;;;6.30;99.90;;;;;;5024306;28;20013;-71
2021/12/15 11:27:59;;;;;;;;;;;6.30;99.90;;;;;;5020141;28;20022;-71
2021/12/15 11:30:36;;;;;;;115.40;48.03;;;6.20;99.90;;;;;;5029132;28;19999;-71
2021/12/15 11:33:13;;;;;;;99.05;44.53;;;6.20;99.90;;;;;;5019236;28;20018;-71
2021/12/15 11:35:43;;;;;;;104.43;48.33;;;6.10;99.90;;;;;;5029056;28;20025;-71
2021/12/15 11:38:23;;;;;;;97.68;46.22;;;6.10;99.90;;;;;;5026716;28;20471;-72
2021/12/15 11:41:11;;;;;;;111.35;46.58;;;6.20;99.90;;;;;;5024941;28;20037;-72
2021/12/15 11:43:45;;;;;;;113.07;44.65;;;6.10;99.90;;;;;;5029959;28;20025;-72
2021/12/15 11:46:17;;;;;;;136.40;52.75;;;6.10;99.90;;;;;;5023420;28;20022;-72
2021/12/15 11:48:45;;;;;;;109.13;43.58;;;6.00;99.90;;;;;;5028843;28;20435;-72
2021/12/15 11:51:12;;;;;;;110.22;44.15;;;6.10;99.90;;;;;;5027445;28;20101;-71
2021/12/15 11:53:42;;;;;;;91.68;39.78;;;6.10;99.90;;;;;;5026145;28;20052;-71
2021/12/15 11:56:27;;;;;;;102.13;43.83;;;6.20;99.90;;;;;;5018744;28;20108;-71
2021/12/15 11:58:59;;;;;;;105.87;46.17;;;6.20;99.90;;;;;;5024170;28;20025;-70
2021/12/15 12:01:47;;;;;;;113.70;58.97;;;6.20;99.90;;;;;;5027006;28;20030;-73
2021/12/15 12:04:37;;;;;;;104.60;51.72;;;6.10;99.90;;;;;;5026583;28;20014;-74
2021/12/15 12:07:18;;;;;;;127.13;51.72;;;6.20;99.90;;;;;;5014737;28;20101;-72
2021/12/15 12:09:51;;;;;;;83.65;43.67;;;6.20;99.90;;;;;;5025624;28;20481;-71
2021/12/15 12:12:18;;;;;;;98.70;47.35;;;6.30;99.90;;;;;;5026826;28;20340;-71
2021/12/15 12:14:50;;;;;;;94.78;45.03;;;6.20;99.90;;;;;;5024859;28;20018;-71
2021/12/15 12:17:22;;;;;;;91.68;44.40;;;6.20;99.90;;;;;;5015282;28;20017;-72
2021/12/15 12:20:02;;;;;;;113.97;50.85;;;6.20;99.90;;;;;;5023111;28;20448;-72
2021/12/15 12:22:30;;;;;;;94.55;44.95;;;6.20;99.90;;;;;;5022540;28;20033;-73
2021/12/15 12:24:59;;;;;;;111.47;48.17;;;6.20;99.90;;;;;;5026529;28;20025;-72
2021/12/15 12:27:29;;;;;;;116.45;50.47;;;6.30;99.90;;;;;;5024677;28;20571;-71
2021/12/15 12:29:57;;;;;;;92.22;44.35;;;6.20;99.90;;;;;;5023539;28;20114;-69
2021/12/15 12:32:23;;;;;;;82.82;41.17;;;6.20;99.90;;;;;;5021323;28;20108;-70
2021/12/15 12:34:50;;;;;;;84.90;42.67;;;6.20;99.90;;;;;;5012706;28;20433;-71
2021/12/15 12:37:17;;;;;;;108.00;48.45;;;6.10;99.90;;;;;;5020850;28;20430;-72
2021/12/15 12:39:53;;;;;;;132.07;52.63;;;6.20;99.90;;;;;;5025188;28;20022;-71
2021/12/15 12:42:51;;;;;;;91.75;43.90;;;6.20;99.90;;;;;;5026007;28;20491;-71
2021/12/15 12:45:41;;;;;;;103.00;44.15;;;6.00;99.90;;;;;;4992510;28;20579;-71
2021/12/15 12:48:36;;;;;;;103.13;44.28;;;6.00;99.90;;;;;;5024818;28;20495;-70
2021/12/15 12:59:32;;;;;;;114.63;52.38;;;6.00;99.90;;;;;;5025259;28;20434;-71
2021/12/15 13:02:00;;;;;;;93.38;48.08;;;6.10;99.90;;;;;;5022320;28;20026;-71
2021/12/15 13:04:43;;;;;;;104.72;49.80;;;6.10;99.90;;;;;;5027629;28;20017;-71
2021/12/15 13:07:10;;;;;;;103.95;46.58;;;6.10;99.90;;;;;;5025048;28;20026;-71
2021/12/15 13:09:45;;;;;;;96.20;46.80;;;6.10;99.90;;;;;;5016838;28;20678;-72
2021/12/15 13:12:47;;;;;;;113.95;51.08;;;6.10;99.90;;;;;;5013610;28;20570;-71
2021/12/15 13:15:19;;;;;;;107.90;52.05;;;6.00;99.90;;;;;;5010033;28;20021;-71
2021/12/15 13:18:03;;;;;;;117.70;50.03;;;6.00;99.90;;;;;;5033637;28;20025;-71
2021/12/15 13:20:32;;;;;;;114.75;48.38;;;6.00;99.90;;;;;;5026843;28;20515;-71
2021/12/15 13:28:49;;;;;;;122.15;45.58;;;5.90;99.90;;;;;;5019650;28;20036;-71
2021/12/15 13:31:18;;;;;;;;;;;5.90;99.90;;;;;;5030490;28;20117;-71
2021/12/15 13:33:53;;;;;;;139.23;54.88;;;6.00;99.90;;;;;;5012131;28;20261;-72
2021/12/15 13:36:23;;;;;;;152.60;51.50;;;6.00;99.90;;;;;;5013464;28;20025;-72
2021/12/15 13:39:03;;;;;;;144.50;49.45;;;5.90;99.90;;;;;;5013519;28;20109;-71
2021/12/15 13:42:01;;;;;;;135.88;45.78;;;6.00;99.90;;;;;;5013207;28;20532;-72
2021/12/15 13:44:45;;;;;;;122.15;45.70;;;6.00;99.90;;;;;;5013144;28;20101;-72
2021/12/15 13:47:11;;;;;;;159.45;56.80;;;6.00;99.90;;;;;;5026646;28;20383;-71
2021/12/15 13:49:45;;;;;;;95.82;41.88;;;6.00;99.90;;;;;;5013281;28;20097;-71
2021/12/15 13:52:31;;;;;;;133.60;46.83;;;6.00;99.90;;;;;;5012049;28;20455;-71
2021/12/15 13:55:17;;;;;;;105.00;44.38;;;6.10;99.90;;;;;;5013009;28;20022;-71
2021/12/15 13:57:45;;;;;;;154.60;49.88;;;6.00;99.90;;;;;;5031655;28;20026;-71
2021/12/15 14:00:27;;;;;;;104.60;42.83;;;6.00;99.90;;;;;;5032694;28;20025;-71
2021/12/15 14:02:58;;;;;;;81.50;36.90;;;6.10;99.90;;;;;;5032751;28;20025;-71
2021/12/15 14:05:27;;;;;;;104.63;44.70;;;6.00;99.90;;;;;;5029107;28;20126;-71
2021/12/15 14:08:11;;;;;;;86.90;38.13;;;6.10;99.90;;;;;;5012877;28;20030;-71
2021/12/15 14:10:38;;;;;;;100.97;41.03;;;6.10;99.90;;;;;;5011443;28;20080;-72
2021/12/15 14:13:05;;;;;;;91.78;41.33;;;6.10;99.90;;;;;;5011383;28;20029;-71